createdAt,value
2019-02-07T00:00:18.407Z,100.0
2019-02-07T00:01:19.119Z,100.0
2019-02-07T00:02:19.849Z,100.0
2019-02-07T00:03:20.557Z,100.0
2019-02-07T00:04:21.271Z,100.0
2019-02-07T00:05:22.034Z,100.0
2019-02-07T00:06:22.751Z,100.0
2019-02-07T00:07:23.470Z,100.0
2019-02-07T00:08:24.194Z,100.0
2019-02-07T00:09:24.911Z,100.0
2019-02-07T00:10:25.618Z,100.0
2019-02-07T00:11:26.335Z,100.0
2019-02-07T00:12:27.038Z,100.0
2019-02-07T00:13:27.752Z,100.0
2019-02-07T00:14:39.274Z,100.0
2019-02-07T00:15:29.173Z,100.0
2019-02-07T00:16:30.030Z,100.0
2019-02-07T00:17:30.733Z,100.0
2019-02-07T00:18:31.460Z,100.0
2019-02-07T00:19:32.170Z,100.0
2019-02-07T00:20:32.876Z,100.0
2019-02-07T00:21:33.639Z,100.0
2019-02-07T00:22:34.350Z,100.0
2019-02-07T00:23:35.062Z,100.0
2019-02-07T00:24:42.589Z,100.0
2019-02-07T00:25:36.485Z,100.0
2019-02-07T00:26:37.305Z,100.0
2019-02-07T00:27:38.035Z,100.0
2019-02-07T00:28:38.740Z,100.0
2019-02-07T00:29:39.465Z,100.0
2019-02-07T00:30:40.171Z,100.0
2019-02-07T00:31:40.937Z,100.0
2019-02-07T00:32:41.713Z,100.0
2019-02-07T00:33:42.457Z,100.0
2019-02-07T00:34:43.191Z,100.0
2019-02-07T00:35:43.918Z,100.0
2019-02-07T00:36:44.652Z,100.0
2019-02-07T00:37:45.361Z,100.0
2019-02-07T00:38:46.073Z,100.0
2019-02-07T00:39:46.898Z,100.0
2019-02-07T00:40:47.888Z,100.0
2019-02-07T00:41:48.622Z,100.0
2019-02-07T00:42:49.334Z,100.0
2019-02-07T00:43:50.047Z,100.0
2019-02-07T00:44:52.470Z,100.0
2019-02-07T00:45:51.506Z,100.0
2019-02-07T00:46:52.221Z,100.0
2019-02-07T00:47:52.945Z,100.0
2019-02-07T00:48:53.662Z,100.0
2019-02-07T00:49:54.381Z,100.0
2019-02-07T00:50:55.097Z,100.0
2019-02-07T00:51:55.827Z,100.0
2019-02-07T00:52:56.532Z,100.0
2019-02-07T00:53:57.511Z,100.0
2019-02-07T00:54:58.225Z,100.0
2019-02-07T00:55:58.935Z,100.0
2019-02-07T00:56:59.657Z,100.0
2019-02-07T00:58:00.388Z,100.0
2019-02-07T00:59:01.147Z,100.0
2019-02-07T01:00:01.886Z,100.0
2019-02-07T01:01:02.606Z,100.0
2019-02-07T01:02:03.316Z,100.0
2019-02-07T01:03:04.030Z,100.0
2019-02-07T01:04:04.728Z,100.0
2019-02-07T01:05:05.453Z,100.0
2019-02-07T01:06:06.433Z,100.0
2019-02-07T01:07:07.496Z,100.0
2019-02-07T01:08:08.150Z,100.0
2019-02-07T01:09:08.928Z,100.0
2019-02-07T01:10:09.639Z,100.0
2019-02-07T01:11:10.625Z,100.0
2019-02-07T01:12:11.319Z,100.0
2019-02-07T01:13:12.028Z,100.0
2019-02-07T01:14:12.843Z,100.0
2019-02-07T01:15:13.560Z,100.0
2019-02-07T01:16:14.272Z,100.0
2019-02-07T01:17:14.995Z,100.0
2019-02-07T01:18:15.714Z,100.0
2019-02-07T01:19:16.472Z,100.0
2019-02-07T01:20:17.184Z,100.0
2019-02-07T01:21:17.896Z,100.0
2019-02-07T01:22:18.616Z,100.0
2019-02-07T01:23:19.328Z,100.0
2019-02-07T01:24:20.062Z,100.0
2019-02-07T01:25:20.765Z,100.0
2019-02-07T01:26:21.480Z,100.0
2019-02-07T01:27:22.185Z,100.0
2019-02-07T01:28:22.905Z,100.0
2019-02-07T01:29:23.611Z,100.0
2019-02-07T01:30:24.381Z,100.0
2019-02-07T01:31:25.100Z,100.0
2019-02-07T01:32:25.817Z,100.0
2019-02-07T01:33:26.531Z,100.0
2019-02-07T01:34:27.237Z,100.0
2019-02-07T01:35:28.056Z,100.0
2019-02-07T01:36:28.764Z,100.0
2019-02-07T01:37:29.482Z,100.0
2019-02-07T01:38:30.195Z,100.0
2019-02-07T01:39:30.909Z,100.0
2019-02-07T01:40:31.630Z,100.0
2019-02-07T01:41:32.341Z,100.0
2019-02-07T01:42:33.043Z,100.0
2019-02-07T01:43:33.755Z,100.0
2019-02-07T01:44:34.474Z,100.0
2019-02-07T01:45:35.246Z,100.0
2019-02-07T01:46:35.954Z,100.0
2019-02-07T01:47:36.673Z,100.0
2019-02-07T01:48:37.385Z,100.0
2019-02-07T01:49:38.113Z,100.0
2019-02-07T01:50:38.837Z,100.0
2019-02-07T01:51:39.550Z,100.0
2019-02-07T01:52:40.266Z,100.0
2019-02-07T01:53:40.984Z,100.0
2019-02-07T01:54:41.711Z,100.0
2019-02-07T01:55:42.430Z,100.0
2019-02-07T01:56:43.136Z,100.0
2019-02-07T01:57:43.850Z,100.0
2019-02-07T01:58:44.566Z,100.0
2019-02-07T01:59:45.285Z,100.0
2019-02-07T02:00:46.000Z,100.0
2019-02-07T02:01:46.706Z,100.0
2019-02-07T02:02:47.423Z,100.0
2019-02-07T02:03:48.140Z,100.0
2019-02-07T02:04:48.853Z,100.0
2019-02-07T02:05:49.564Z,100.0
2019-02-07T02:06:50.281Z,100.0
2019-02-07T02:07:50.993Z,100.0
2019-02-07T02:08:51.704Z,100.0
2019-02-07T02:09:52.416Z,100.0
2019-02-07T02:10:53.131Z,100.0
2019-02-07T02:11:53.947Z,100.0
2019-02-07T02:12:54.659Z,100.0
2019-02-07T02:13:55.372Z,100.0
2019-02-07T02:14:56.093Z,100.0
2019-02-07T02:15:57.887Z,100.0
2019-02-07T02:16:58.711Z,100.0
2019-02-07T02:17:59.811Z,100.0
2019-02-07T02:19:00.578Z,100.0
2019-02-07T02:20:01.277Z,100.0
2019-02-07T02:21:01.985Z,100.0
2019-02-07T02:22:02.704Z,100.0
2019-02-07T02:23:03.566Z,100.0
2019-02-07T02:24:04.554Z,100.0
2019-02-07T02:25:05.565Z,100.0
2019-02-07T02:26:06.335Z,100.0
2019-02-07T02:27:07.349Z,100.0
2019-02-07T02:28:08.070Z,100.0
2019-02-07T02:29:08.803Z,100.0
2019-02-07T02:30:09.862Z,100.0
2019-02-07T02:31:10.560Z,100.0
2019-02-07T02:32:11.273Z,100.0
2019-02-07T02:33:12.002Z,100.0
2019-02-07T02:34:12.726Z,100.0
2019-02-07T02:35:13.439Z,100.0
2019-02-07T02:36:14.151Z,100.0
2019-02-07T02:37:14.886Z,100.0
2019-02-07T02:38:15.713Z,100.0
2019-02-07T02:39:16.308Z,100.0
2019-02-07T02:40:17.025Z,100.0
2019-02-07T02:41:17.763Z,100.0
2019-02-07T02:42:18.472Z,100.0
2019-02-07T02:43:19.181Z,100.0
2019-02-07T02:44:20.227Z,100.0
2019-02-07T02:45:21.254Z,100.0
2019-02-07T02:46:21.994Z,100.0
2019-02-07T02:47:22.689Z,100.0
2019-02-07T02:48:23.407Z,100.0
2019-02-07T02:49:24.200Z,100.0
2019-02-07T02:50:24.834Z,100.0
2019-02-07T02:51:25.590Z,100.0
2019-02-07T02:52:26.306Z,100.0
2019-02-07T02:53:27.016Z,100.0
2019-02-07T02:54:27.722Z,100.0
2019-02-07T02:55:28.437Z,100.0
2019-02-07T02:56:29.162Z,100.0
2019-02-07T02:57:29.876Z,100.0
2019-02-07T02:58:30.589Z,100.0
2019-02-07T02:59:31.305Z,100.0
2019-02-07T03:00:32.026Z,100.0
2019-02-07T03:01:32.781Z,100.0
2019-02-07T03:02:33.491Z,100.0
2019-02-07T03:03:34.197Z,100.0
2019-02-07T03:04:34.908Z,100.0
2019-02-07T03:05:35.631Z,100.0
2019-02-07T03:06:36.344Z,100.0
2019-02-07T03:07:37.051Z,100.0
2019-02-07T03:08:37.823Z,100.0
2019-02-07T03:09:38.497Z,100.0
2019-02-07T03:10:39.220Z,100.0
2019-02-07T03:11:39.985Z,100.0
2019-02-07T03:12:40.711Z,100.0
2019-02-07T03:13:41.408Z,100.0
2019-02-07T03:14:42.114Z,100.0
2019-02-07T03:15:49.618Z,100.0
2019-02-07T03:16:43.552Z,100.0
2019-02-07T03:17:44.263Z,100.0
2019-02-07T03:18:44.974Z,100.0
2019-02-07T03:19:45.675Z,100.0
2019-02-07T03:20:46.381Z,100.0
2019-02-07T03:21:47.103Z,100.0
2019-02-07T03:22:47.810Z,100.0
2019-02-07T03:23:48.528Z,100.0
2019-02-07T03:24:49.244Z,100.0
2019-02-07T03:25:49.958Z,100.0
2019-02-07T03:26:50.671Z,100.0
2019-02-07T03:27:51.392Z,100.0
2019-02-07T03:28:52.199Z,100.0
2019-02-07T03:29:52.908Z,100.0
2019-02-07T03:30:53.626Z,100.0
2019-02-07T03:31:54.334Z,100.0
2019-02-07T03:32:55.048Z,100.0
2019-02-07T03:33:55.874Z,100.0
2019-02-07T03:34:56.579Z,100.0
2019-02-07T03:35:57.288Z,100.0
2019-02-07T03:36:58.012Z,100.0
2019-02-07T03:37:58.725Z,100.0
2019-02-07T03:38:59.434Z,100.0
2019-02-07T03:40:00.314Z,100.0
2019-02-07T03:41:00.885Z,100.0
2019-02-07T03:42:01.602Z,100.0
2019-02-07T03:43:02.313Z,100.0
2019-02-07T03:44:03.024Z,100.0
2019-02-07T03:45:03.743Z,100.0
2019-02-07T03:46:04.456Z,100.0
2019-02-07T03:47:05.162Z,100.0
2019-02-07T03:48:06.120Z,100.0
2019-02-07T03:49:06.843Z,100.0
2019-02-07T03:50:07.547Z,100.0
2019-02-07T03:51:08.253Z,100.0
2019-02-07T03:52:08.969Z,100.0
2019-02-07T03:53:09.680Z,100.0
2019-02-07T03:54:10.391Z,100.0
2019-02-07T03:55:11.146Z,100.0
2019-02-07T03:56:12.072Z,100.0
2019-02-07T03:57:12.826Z,100.0
2019-02-07T03:58:13.624Z,100.0
2019-02-07T03:59:14.371Z,100.0
2019-02-07T04:00:15.157Z,100.0
2019-02-07T04:01:16.067Z,100.0
2019-02-07T04:02:16.789Z,100.0
2019-02-07T04:03:17.645Z,100.0
2019-02-07T04:04:18.624Z,100.0
2019-02-07T04:05:19.593Z,100.0
2019-02-07T04:06:20.311Z,100.0
2019-02-07T04:07:21.030Z,100.0
2019-02-07T04:08:21.740Z,100.0
2019-02-07T04:09:22.445Z,100.0
2019-02-07T04:10:23.148Z,100.0
2019-02-07T04:11:23.875Z,100.0
2019-02-07T04:12:24.570Z,100.0
2019-02-07T04:13:25.277Z,100.0
2019-02-07T04:14:25.992Z,100.0
2019-02-07T04:15:26.714Z,100.0
2019-02-07T04:16:27.417Z,100.0
2019-02-07T04:17:28.143Z,100.0
2019-02-07T04:18:28.914Z,100.0
2019-02-07T04:19:29.628Z,100.0
2019-02-07T04:20:30.351Z,100.0
2019-02-07T04:21:31.080Z,100.0
2019-02-07T04:22:31.799Z,100.0
2019-02-07T04:23:32.553Z,100.0
2019-02-07T04:24:33.274Z,100.0
2019-02-07T04:25:33.999Z,100.0
2019-02-07T04:26:34.704Z,100.0
2019-02-07T04:27:35.411Z,100.0
2019-02-07T04:28:36.134Z,100.0
2019-02-07T04:29:36.847Z,100.0
2019-02-07T04:30:37.570Z,100.0
2019-02-07T04:31:38.286Z,100.0
2019-02-07T04:32:39.095Z,100.0
2019-02-07T04:33:39.821Z,100.0
2019-02-07T04:34:40.528Z,100.0
2019-02-07T04:35:41.234Z,100.0
2019-02-07T04:36:41.947Z,100.0
2019-02-07T04:37:42.713Z,100.0
2019-02-07T04:38:43.418Z,100.0
2019-02-07T04:39:44.140Z,100.0
2019-02-07T04:40:44.867Z,100.0
2019-02-07T04:41:45.610Z,100.0
2019-02-07T04:42:46.303Z,100.0
2019-02-07T04:43:47.013Z,100.0
2019-02-07T04:44:47.744Z,100.0
2019-02-07T04:45:48.457Z,100.0
2019-02-07T04:46:49.153Z,100.0
2019-02-07T04:47:49.862Z,100.0
2019-02-07T04:48:50.567Z,100.0
2019-02-07T04:49:51.272Z,100.0
2019-02-07T04:50:51.978Z,100.0
2019-02-07T04:51:52.698Z,100.0
2019-02-07T04:52:53.469Z,100.0
2019-02-07T04:53:54.170Z,100.0
2019-02-07T04:54:54.876Z,100.0
2019-02-07T04:55:55.617Z,100.0
2019-02-07T04:56:56.332Z,100.0
2019-02-07T04:57:57.035Z,100.0
2019-02-07T04:58:57.753Z,100.0
2019-02-07T04:59:58.472Z,100.0
2019-02-07T05:00:59.448Z,100.0
2019-02-07T05:02:00.301Z,100.0
2019-02-07T05:03:01.006Z,100.0
2019-02-07T05:04:01.709Z,100.0
2019-02-07T05:05:02.425Z,100.0
2019-02-07T05:06:03.129Z,100.0
2019-02-07T05:07:03.941Z,100.0
2019-02-07T05:08:04.657Z,100.0
2019-02-07T05:09:05.370Z,100.0
2019-02-07T05:10:06.092Z,100.0
2019-02-07T05:11:06.794Z,100.0
2019-02-07T05:12:07.501Z,100.0
2019-02-07T05:13:08.215Z,100.0
2019-02-07T05:14:08.941Z,100.0
2019-02-07T05:15:09.657Z,100.0
2019-02-07T05:16:10.381Z,100.0
2019-02-07T05:17:11.112Z,100.0
2019-02-07T05:18:11.835Z,100.0
2019-02-07T05:19:12.560Z,100.0
2019-02-07T05:20:13.269Z,100.0
2019-02-07T05:21:13.991Z,100.0
2019-02-07T05:22:14.756Z,100.0
2019-02-07T05:23:15.434Z,100.0
2019-02-07T05:24:16.151Z,100.0
2019-02-07T05:25:16.871Z,100.0
2019-02-07T05:26:17.841Z,100.0
2019-02-07T05:27:18.546Z,100.0
2019-02-07T05:28:19.260Z,100.0
2019-02-07T05:29:19.980Z,100.0
2019-02-07T05:30:20.688Z,100.0
2019-02-07T05:31:21.403Z,100.0
2019-02-07T05:32:22.114Z,100.0
2019-02-07T05:33:22.827Z,100.0
2019-02-07T05:34:23.537Z,100.0
2019-02-07T05:35:24.255Z,100.0
2019-02-07T05:36:24.973Z,100.0
2019-02-07T05:37:25.668Z,100.0
2019-02-07T05:38:26.387Z,100.0
2019-02-07T05:39:27.090Z,100.0
2019-02-07T05:40:28.068Z,100.0
2019-02-07T05:41:28.761Z,100.0
2019-02-07T05:42:29.470Z,100.0
2019-02-07T05:43:30.192Z,100.0
2019-02-07T05:44:30.905Z,100.0
2019-02-07T05:45:31.871Z,100.0
2019-02-07T05:46:32.580Z,100.0
2019-02-07T05:47:33.303Z,100.0
2019-02-07T05:48:34.027Z,100.0
2019-02-07T05:49:34.727Z,100.0
2019-02-07T05:50:35.689Z,100.0
2019-02-07T05:51:36.393Z,100.0
2019-02-07T05:52:37.111Z,100.0
2019-02-07T05:53:37.818Z,100.0
2019-02-07T05:54:38.524Z,100.0
2019-02-07T05:55:39.235Z,100.0
2019-02-07T05:56:39.950Z,100.0
2019-02-07T05:57:40.678Z,100.0
2019-02-07T05:58:41.389Z,100.0
2019-02-07T05:59:42.096Z,100.0
2019-02-07T06:00:42.808Z,100.0
2019-02-07T06:01:43.535Z,100.0
2019-02-07T06:02:44.231Z,100.0
2019-02-07T06:03:44.930Z,100.0
2019-02-07T06:04:45.903Z,100.0
2019-02-07T06:05:46.608Z,100.0
2019-02-07T06:06:47.312Z,100.0
2019-02-07T06:07:48.078Z,100.0
2019-02-07T06:08:48.781Z,100.0
2019-02-07T06:09:49.489Z,100.0
2019-02-07T06:10:50.212Z,100.0
2019-02-07T06:11:50.934Z,100.0
2019-02-07T06:12:51.703Z,100.0
2019-02-07T06:13:52.422Z,100.0
2019-02-07T06:14:53.140Z,100.0
2019-02-07T06:15:53.865Z,100.0
2019-02-07T06:17:02.187Z,100.0
2019-02-07T06:17:55.286Z,100.0
2019-02-07T06:18:56.013Z,100.0
2019-02-07T06:19:56.916Z,100.0
2019-02-07T06:20:57.631Z,100.0
2019-02-07T06:21:58.341Z,100.0
2019-02-07T06:22:59.063Z,100.0
2019-02-07T06:23:59.774Z,100.0
2019-02-07T06:25:00.488Z,100.0
2019-02-07T06:26:01.206Z,100.0
2019-02-07T06:27:01.919Z,100.0
2019-02-07T06:28:02.628Z,100.0
2019-02-07T06:29:03.345Z,100.0
2019-02-07T06:30:04.045Z,100.0
2019-02-07T06:31:04.770Z,100.0
2019-02-07T06:32:05.483Z,100.0
2019-02-07T06:33:06.313Z,100.0
2019-02-07T06:34:07.637Z,100.0
2019-02-07T06:35:07.628Z,100.0
2019-02-07T06:36:08.341Z,100.0
2019-02-07T06:37:09.063Z,100.0
2019-02-07T06:38:09.783Z,100.0
2019-02-07T06:39:10.486Z,100.0
2019-02-07T06:40:11.199Z,100.0
2019-02-07T06:41:12.216Z,100.0
2019-02-07T06:42:12.916Z,100.0
2019-02-07T06:43:13.891Z,100.0
2019-02-07T06:44:14.595Z,100.0
2019-02-07T06:45:15.313Z,100.0
2019-02-07T06:46:16.026Z,100.0
2019-02-07T06:47:16.747Z,100.0
2019-02-07T06:48:17.472Z,100.0
2019-02-07T06:49:18.186Z,100.0
2019-02-07T06:50:18.912Z,100.0
2019-02-07T06:51:19.625Z,100.0
2019-02-07T06:52:20.439Z,100.0
2019-02-07T06:53:21.157Z,100.0
2019-02-07T06:54:21.867Z,100.0
2019-02-07T06:55:22.589Z,100.0
2019-02-07T06:56:23.307Z,100.0
2019-02-07T06:57:24.013Z,100.0
2019-02-07T06:58:24.742Z,100.0
2019-02-07T06:59:25.488Z,100.0
2019-02-07T07:00:26.191Z,100.0
2019-02-07T07:01:26.916Z,100.0
2019-02-07T07:02:27.630Z,100.0
2019-02-07T07:03:28.391Z,100.0
2019-02-07T07:04:29.102Z,100.0
2019-02-07T07:05:29.825Z,100.0
2019-02-07T07:06:30.543Z,100.0
2019-02-07T07:07:31.264Z,100.0
2019-02-07T07:08:32.035Z,100.0
2019-02-07T07:09:32.755Z,100.0
2019-02-07T07:10:33.466Z,100.0
2019-02-07T07:11:34.185Z,100.0
2019-02-07T07:12:34.901Z,100.0
2019-02-07T07:13:35.607Z,100.0
2019-02-07T07:14:36.320Z,100.0
2019-02-07T07:15:37.190Z,100.0
2019-02-07T07:16:37.918Z,100.0
2019-02-07T07:17:38.626Z,100.0
2019-02-07T07:18:39.336Z,100.0
2019-02-07T07:19:40.056Z,100.0
2019-02-07T07:20:40.823Z,100.0
2019-02-07T07:21:41.551Z,100.0
2019-02-07T07:22:42.267Z,100.0
2019-02-07T07:23:42.980Z,100.0
2019-02-07T07:24:43.695Z,100.0
2019-02-07T07:25:44.405Z,100.0
2019-02-07T07:26:45.272Z,100.0
2019-02-07T07:27:46.004Z,100.0
2019-02-07T07:28:46.718Z,100.0
2019-02-07T07:29:47.432Z,100.0
2019-02-07T07:30:48.152Z,100.0
2019-02-07T07:31:48.877Z,100.0
2019-02-07T07:32:49.587Z,100.0
2019-02-07T07:33:50.306Z,100.0
2019-02-07T07:34:51.022Z,100.0
2019-02-07T07:35:51.744Z,100.0
2019-02-07T07:36:52.477Z,100.0
2019-02-07T07:37:53.171Z,100.0
2019-02-07T07:38:53.886Z,100.0
2019-02-07T07:39:54.605Z,100.0
2019-02-07T07:40:55.324Z,100.0
2019-02-07T07:41:56.080Z,100.0
2019-02-07T07:42:56.802Z,100.0
2019-02-07T07:43:57.516Z,100.0
2019-02-07T07:44:58.238Z,100.0
2019-02-07T07:45:58.956Z,100.0
2019-02-07T07:46:59.681Z,100.0
2019-02-07T07:48:00.389Z,100.0
2019-02-07T07:49:01.103Z,100.0
2019-02-07T07:50:01.819Z,100.0
2019-02-07T07:51:02.528Z,100.0
2019-02-07T07:52:03.241Z,100.0
2019-02-07T07:53:03.968Z,100.0
2019-02-07T07:54:04.680Z,100.0
2019-02-07T07:55:05.394Z,100.0
2019-02-07T07:56:06.110Z,100.0
2019-02-07T07:57:06.905Z,100.0
2019-02-07T07:58:07.544Z,100.0
2019-02-07T07:59:08.262Z,100.0
2019-02-07T08:00:09.035Z,100.0
2019-02-07T08:01:09.687Z,100.0
2019-02-07T08:02:10.397Z,100.0
2019-02-07T08:03:11.115Z,100.0
2019-02-07T08:04:11.848Z,100.0
2019-02-07T08:05:12.552Z,100.0
2019-02-07T08:06:13.274Z,100.0
2019-02-07T08:07:13.995Z,100.0
2019-02-07T08:08:14.723Z,100.0
2019-02-07T08:09:16.050Z,100.0
2019-02-07T08:10:16.931Z,100.0
2019-02-07T08:11:17.888Z,100.0
2019-02-07T08:12:18.875Z,100.0
2019-02-07T08:13:20.621Z,100.0
2019-02-07T08:14:21.719Z,100.0
2019-02-07T08:15:22.794Z,100.0
2019-02-07T08:16:24.055Z,100.0
2019-02-07T08:17:25.101Z,100.0
2019-02-07T08:18:25.866Z,100.0
2019-02-07T08:19:26.666Z,100.0
2019-02-07T08:20:27.742Z,100.0
2019-02-07T08:21:28.533Z,100.0
2019-02-07T08:22:29.553Z,100.0
2019-02-07T08:23:30.990Z,100.0
2019-02-07T08:24:31.710Z,100.0
2019-02-07T08:25:33.231Z,100.0
2019-02-07T08:26:34.230Z,100.0
2019-02-07T08:27:35.265Z,100.0
2019-02-07T08:28:36.259Z,100.0
2019-02-07T08:29:37.875Z,100.0
2019-02-07T08:30:38.621Z,100.0
2019-02-07T08:31:39.741Z,100.0
2019-02-07T08:32:40.663Z,100.0
2019-02-07T08:33:41.390Z,100.0
2019-02-07T08:34:42.574Z,100.0
2019-02-07T08:35:44.067Z,100.0
2019-02-07T08:36:45.172Z,100.0
2019-02-07T08:37:46.130Z,100.0
2019-02-07T08:38:49.778Z,100.0
2019-02-07T08:39:48.243Z,100.0
2019-02-07T08:40:49.351Z,100.0
2019-02-07T08:41:50.150Z,100.0
2019-02-07T08:42:51.155Z,100.0
2019-02-07T08:43:52.230Z,100.0
2019-02-07T08:44:55.055Z,100.0
2019-02-07T08:45:54.345Z,99.7
2019-02-07T08:46:55.184Z,98.7
2019-02-07T08:47:58.607Z,100.0
2019-02-07T08:48:57.181Z,100.0
2019-02-07T08:49:58.183Z,100.0
2019-02-07T08:50:59.276Z,99.3
2019-02-07T08:52:00.130Z,97.2
2019-02-07T08:53:00.845Z,97.4
2019-02-07T08:54:01.580Z,95.7
2019-02-07T08:55:02.304Z,97.3
2019-02-07T08:56:03.020Z,94.3
2019-02-07T08:57:03.726Z,93.1
2019-02-07T08:58:05.055Z,93.8
2019-02-07T08:59:05.915Z,94.2
2019-02-07T09:00:06.945Z,91.4
2019-02-07T09:01:07.654Z,89.7
2019-02-07T09:02:08.370Z,91.4
2019-02-07T09:03:09.078Z,91.0
2019-02-07T09:04:09.936Z,87.5
2019-02-07T09:05:10.690Z,84.3
2019-02-07T09:06:11.370Z,87.7
2019-02-07T09:07:12.076Z,86.7
2019-02-07T09:08:12.793Z,84.2
2019-02-07T09:09:13.505Z,81.2
2019-02-07T09:10:14.223Z,80.3
2019-02-07T09:11:14.937Z,82.4
2019-02-07T09:12:15.662Z,79.7
2019-02-07T09:13:16.382Z,77.4
2019-02-07T09:14:17.095Z,76.2
2019-02-07T09:15:17.821Z,72.4
2019-02-07T09:16:18.532Z,71.0
2019-02-07T09:17:19.250Z,68.0
2019-02-07T09:18:20.224Z,66.7
2019-02-07T09:19:21.280Z,64.9
2019-02-07T09:20:21.982Z,64.1
2019-02-07T09:21:22.692Z,63.0
2019-02-07T09:22:24.080Z,63.0
2019-02-07T09:23:24.113Z,62.3
2019-02-07T09:24:24.886Z,61.5
2019-02-07T09:25:25.606Z,62.8
2019-02-07T09:26:26.318Z,62.3
2019-02-07T09:27:27.052Z,61.4
2019-02-07T09:28:27.770Z,60.6
2019-02-07T09:29:28.484Z,57.8
2019-02-07T09:30:29.190Z,55.8
2019-02-07T09:31:29.911Z,57.2
2019-02-07T09:32:30.628Z,56.5
2019-02-07T09:33:31.342Z,60.0
2019-02-07T09:34:32.064Z,59.2
2019-02-07T09:35:32.774Z,58.3
2019-02-07T09:36:33.496Z,56.7
2019-02-07T09:37:34.200Z,55.4
2019-02-07T09:38:34.922Z,58.6
2019-02-07T09:39:35.640Z,60.6
2019-02-07T09:40:36.365Z,59.2
2019-02-07T09:41:37.083Z,58.4
2019-02-07T09:42:37.806Z,58.4
2019-02-07T09:43:38.815Z,58.2
2019-02-07T09:44:39.437Z,58.9
2019-02-07T09:45:40.164Z,59.3
2019-02-07T09:46:40.922Z,61.4
2019-02-07T09:47:41.593Z,61.3
2019-02-07T09:48:42.305Z,58.9
2019-02-07T09:49:43.009Z,57.3
2019-02-07T09:50:43.736Z,56.6
2019-02-07T09:51:44.452Z,55.7
2019-02-07T09:52:45.230Z,56.1
2019-02-07T09:53:46.080Z,54.3
2019-02-07T09:54:47.056Z,53.8
2019-02-07T09:55:47.769Z,54.2
2019-02-07T09:56:48.478Z,54.6
2019-02-07T09:57:49.191Z,54.9
2019-02-07T09:58:49.909Z,55.8
2019-02-07T09:59:50.622Z,55.6
2019-02-07T10:00:51.337Z,56.2
2019-02-07T10:01:52.296Z,56.5
2019-02-07T10:02:53.020Z,57.0
2019-02-07T10:03:53.908Z,57.1
2019-02-07T10:04:54.614Z,56.7
2019-02-07T10:05:55.334Z,58.0
2019-02-07T10:06:56.056Z,57.3
2019-02-07T10:07:56.771Z,57.0
2019-02-07T10:08:57.482Z,57.5
2019-02-07T10:09:58.202Z,57.0
2019-02-07T10:10:59.010Z,58.2
2019-02-07T10:11:59.734Z,57.8
2019-02-07T10:13:00.463Z,57.1
2019-02-07T10:14:01.167Z,58.9
2019-02-07T10:15:01.891Z,62.2
2019-02-07T10:16:02.608Z,59.4
2019-02-07T10:17:03.372Z,61.6
2019-02-07T10:18:04.078Z,59.9
2019-02-07T10:19:04.796Z,58.4
2019-02-07T10:20:05.513Z,58.0
2019-02-07T10:21:06.228Z,57.6
2019-02-07T10:22:06.962Z,57.6
2019-02-07T10:23:07.666Z,57.6
2019-02-07T10:24:08.390Z,56.9
2019-02-07T10:25:09.089Z,60.0
2019-02-07T10:26:09.841Z,61.2
2019-02-07T10:27:10.632Z,63.5
2019-02-07T10:28:11.277Z,65.4
2019-02-07T10:29:11.997Z,64.1
2019-02-07T10:30:12.715Z,62.4
2019-02-07T10:31:13.566Z,62.4
2019-02-07T10:32:14.214Z,62.6
2019-02-07T10:33:14.933Z,62.7
2019-02-07T10:34:15.642Z,62.3
2019-02-07T10:35:22.863Z,63.0
2019-02-07T10:36:17.105Z,64.1
2019-02-07T10:37:17.826Z,63.6
2019-02-07T10:38:18.551Z,68.0
2019-02-07T10:39:19.250Z,67.7
2019-02-07T10:40:19.966Z,70.0
2019-02-07T10:41:20.674Z,71.0
2019-02-07T10:42:21.404Z,71.8
2019-02-07T10:43:22.116Z,71.3
2019-02-07T10:44:22.852Z,69.6
2019-02-07T10:45:23.561Z,70.3
2019-02-07T10:46:24.271Z,70.3
2019-02-07T10:47:25.035Z,70.3
2019-02-07T10:48:25.745Z,70.3
2019-02-07T10:49:26.476Z,69.1
2019-02-07T10:50:27.178Z,68.2
2019-02-07T10:51:27.910Z,66.4
2019-02-07T10:52:28.635Z,67.2
2019-02-07T10:53:29.345Z,66.5
2019-02-07T10:54:30.070Z,67.2
2019-02-07T10:55:30.791Z,68.1
2019-02-07T10:56:31.511Z,70.2
2019-02-07T10:57:32.618Z,76.5
2019-02-07T10:58:33.740Z,78.9
2019-02-07T10:59:34.639Z,83.2
2019-02-07T11:00:35.363Z,85.7
2019-02-07T11:01:36.075Z,92.2
2019-02-07T11:02:36.796Z,92.7
2019-02-07T11:03:37.792Z,94.7
2019-02-07T11:04:38.544Z,96.1
2019-02-07T11:05:39.267Z,98.7
2019-02-07T11:06:39.972Z,96.3
2019-02-07T11:07:40.693Z,100.0
2019-02-07T11:08:41.396Z,99.0
2019-02-07T11:09:42.160Z,98.4
2019-02-07T11:10:42.888Z,99.8
2019-02-07T11:11:43.609Z,100.0
2019-02-07T11:12:44.334Z,100.0
2019-02-07T11:13:45.089Z,100.0
2019-02-07T11:14:45.762Z,100.0
2019-02-07T11:15:46.490Z,100.0
2019-02-07T11:16:47.203Z,100.0
2019-02-07T11:17:47.915Z,100.0
2019-02-07T11:18:55.275Z,100.0
2019-02-07T11:19:49.340Z,100.0
2019-02-07T11:20:50.062Z,100.0
2019-02-07T11:21:50.784Z,100.0
2019-02-07T11:22:51.762Z,100.0
2019-02-07T11:23:52.745Z,100.0
2019-02-07T11:24:53.451Z,100.0
2019-02-07T11:25:54.164Z,100.0
2019-02-07T11:26:54.877Z,100.0
2019-02-07T11:27:55.602Z,100.0
2019-02-07T11:28:56.313Z,100.0
2019-02-07T11:29:57.030Z,100.0
2019-02-07T11:30:57.749Z,100.0
2019-02-07T11:31:58.560Z,100.0
2019-02-07T11:32:59.287Z,100.0
2019-02-07T11:33:59.997Z,100.0
2019-02-07T11:35:00.721Z,100.0
2019-02-07T11:36:01.432Z,100.0
2019-02-07T11:37:02.144Z,100.0
2019-02-07T11:38:02.862Z,100.0
2019-02-07T11:39:03.568Z,100.0
2019-02-07T11:40:04.277Z,100.0
2019-02-07T11:41:04.985Z,100.0
2019-02-07T11:42:05.697Z,100.0
2019-02-07T11:43:06.415Z,100.0
2019-02-07T11:44:07.143Z,100.0
2019-02-07T11:45:07.856Z,100.0
2019-02-07T11:46:08.577Z,100.0
2019-02-07T11:47:09.283Z,100.0
2019-02-07T11:48:10.004Z,100.0
2019-02-07T11:49:10.736Z,100.0
2019-02-07T11:50:11.871Z,100.0
2019-02-07T11:51:12.575Z,100.0
2019-02-07T11:52:13.287Z,100.0
2019-02-07T11:53:14.037Z,100.0
2019-02-07T11:54:14.753Z,100.0
2019-02-07T11:55:15.581Z,100.0
2019-02-07T11:56:16.349Z,100.0
2019-02-07T11:57:17.003Z,100.0
2019-02-07T11:58:17.732Z,100.0
2019-02-07T11:59:18.452Z,100.0
2019-02-07T12:00:19.165Z,100.0
2019-02-07T12:01:19.887Z,100.0
2019-02-07T12:02:20.596Z,100.0
2019-02-07T12:03:21.325Z,100.0
2019-02-07T12:04:22.031Z,100.0
2019-02-07T12:05:22.748Z,100.0
2019-02-07T12:06:23.470Z,100.0
2019-02-07T12:07:24.181Z,100.0
2019-02-07T12:08:24.903Z,100.0
2019-02-07T12:09:25.613Z,100.0
2019-02-07T12:10:26.335Z,100.0
2019-02-07T12:11:27.054Z,100.0
2019-02-07T12:12:27.787Z,100.0
2019-02-07T12:13:28.504Z,100.0
2019-02-07T12:14:29.222Z,100.0
2019-02-07T12:15:29.952Z,100.0
2019-02-07T12:16:30.675Z,100.0
2019-02-07T12:17:31.395Z,100.0
2019-02-07T12:18:32.113Z,100.0
2019-02-07T12:19:32.846Z,100.0
2019-02-07T12:20:33.560Z,100.0
2019-02-07T12:21:34.281Z,100.0
2019-02-07T12:22:37.359Z,100.0
2019-02-07T12:23:35.738Z,100.0
2019-02-07T12:24:36.457Z,100.0
2019-02-07T12:25:37.170Z,100.0
2019-02-07T12:26:37.899Z,100.0
2019-02-07T12:27:38.621Z,100.0
2019-02-07T12:28:39.344Z,100.0
2019-02-07T12:29:40.062Z,100.0
2019-02-07T12:30:40.770Z,100.0
2019-02-07T12:31:41.495Z,100.0
2019-02-07T12:32:42.218Z,100.0
2019-02-07T12:33:43.752Z,100.0
2019-02-07T12:34:45.084Z,100.0
2019-02-07T12:35:45.839Z,100.0
2019-02-07T12:36:46.671Z,100.0
2019-02-07T12:37:47.415Z,100.0
2019-02-07T12:38:48.120Z,100.0
2019-02-07T12:39:48.851Z,100.0
2019-02-07T12:40:49.554Z,100.0
2019-02-07T12:41:50.271Z,100.0
2019-02-07T12:42:50.976Z,100.0
2019-02-07T12:43:51.734Z,100.0
2019-02-07T12:44:52.455Z,100.0
2019-02-07T12:45:53.178Z,100.0
2019-02-07T12:46:53.916Z,100.0
2019-02-07T12:47:54.630Z,100.0
2019-02-07T12:48:55.357Z,100.0
2019-02-07T12:49:56.066Z,100.0
2019-02-07T12:50:56.796Z,100.0
2019-02-07T12:51:57.501Z,100.0
2019-02-07T12:52:58.220Z,100.0
2019-02-07T12:53:59.251Z,100.0
2019-02-07T12:55:00.036Z,100.0
2019-02-07T12:56:00.761Z,100.0
2019-02-07T12:57:01.492Z,100.0
2019-02-07T12:58:02.506Z,100.0
2019-02-07T12:59:03.245Z,100.0
2019-02-07T13:00:03.970Z,100.0
2019-02-07T13:01:04.694Z,100.0
2019-02-07T13:02:05.425Z,100.0
2019-02-07T13:03:06.151Z,100.0
2019-02-07T13:04:06.872Z,100.0
2019-02-07T13:05:07.603Z,100.0
2019-02-07T13:06:08.334Z,100.0
2019-02-07T13:07:09.064Z,100.0